createdAt,value
2018-02-14T17:18:45.693Z,1.10
2018-02-14T17:20:17.281Z,1.30
2018-02-14T17:21:49.114Z,1.50
2018-02-14T17:23:20.913Z,1.20
2018-02-14T17:24:52.728Z,1.30
2018-02-14T17:26:24.545Z,1.40
2018-02-14T17:27:56.375Z,1.40
2018-02-14T17:29:28.176Z,1.50
2018-02-14T17:30:59.992Z,1.70
2018-02-14T17:32:31.834Z,1.60
2018-02-14T17:34:03.624Z,2.10
2018-02-14T17:35:35.439Z,1.40
2018-02-14T17:37:07.355Z,1.70
2018-02-14T17:38:39.070Z,1.70
2018-02-14T17:40:10.886Z,2.10
2018-02-14T17:41:42.701Z,2.50
2018-02-14T17:44:58.175Z,2.40
2018-02-14T17:46:29.970Z,2.30
2018-02-14T17:48:01.786Z,2.20
2018-02-14T17:49:33.752Z,2.60
2018-02-14T17:51:05.419Z,2.30
2018-02-14T17:52:37.231Z,1.70
2018-02-14T17:54:09.048Z,1.90
2018-02-14T17:55:40.962Z,1.90
2018-02-14T17:57:12.680Z,1.90
2018-02-14T17:58:44.494Z,2.10
2018-02-14T18:00:16.310Z,2.10
2018-02-14T18:01:48.126Z,2.20
2018-02-14T18:03:19.944Z,2.30
2018-02-14T18:04:51.762Z,1.70
2018-02-14T18:06:23.566Z,1.30
2018-02-14T18:07:55.381Z,1.70
2018-02-14T18:09:27.199Z,1.60
2018-02-14T18:10:59.017Z,1.50
2018-02-14T18:12:30.834Z,1.10
2018-02-14T18:14:02.754Z,1.40
2018-02-14T18:15:34.469Z,1.00
2018-02-14T18:17:06.287Z,0.90
2018-02-14T18:18:38.104Z,1.30
2018-02-14T18:20:10.027Z,1.90
2018-02-14T18:21:41.741Z,1.00
2018-02-14T18:23:13.559Z,0.90
2018-02-14T18:24:45.381Z,1.30
2018-02-14T18:26:17.196Z,1.10
2018-02-14T18:27:49.015Z,0.90
2018-02-14T18:29:20.834Z,1.30
2018-02-14T18:30:52.660Z,1.20
2018-02-14T18:32:24.573Z,0.90
2018-02-14T18:33:56.292Z,0.90
2018-02-14T18:35:28.129Z,0.80
2018-02-14T18:37:00.045Z,0.90
2018-02-14T18:40:54.897Z,1.20
2018-02-14T18:41:47.197Z,1.00
2018-02-14T18:43:19.016Z,0.90
2018-02-14T18:44:50.835Z,1.10
2018-02-14T18:46:22.705Z,1.20
2018-02-14T18:47:54.473Z,1.00
2018-02-14T18:49:26.294Z,1.00
2018-02-14T18:50:58.211Z,0.80
2018-02-14T18:52:31.344Z,0.90
2018-02-14T18:54:01.748Z,0.90
2018-02-14T18:55:33.568Z,1.00
2018-02-14T18:57:05.385Z,1.10
2018-02-14T18:58:37.203Z,1.00
2018-02-14T19:00:09.027Z,0.90
2018-02-14T19:01:40.838Z,1.20
2018-02-14T19:03:12.656Z,1.30
2018-02-14T19:04:44.474Z,1.50
2018-02-14T19:06:16.291Z,1.30
2018-02-14T19:07:48.145Z,1.50
2018-02-14T19:09:20.026Z,1.50
2018-02-14T19:10:51.742Z,1.70
2018-02-14T19:12:23.558Z,1.60
2018-02-14T19:13:55.373Z,1.30
2018-02-14T19:15:27.189Z,1.40
2018-02-14T19:16:59.004Z,1.50
2018-02-14T19:18:30.820Z,1.60
2018-02-14T19:20:02.636Z,1.40
2018-02-14T19:21:34.621Z,1.10
2018-02-14T19:23:07.717Z,1.50
2018-02-14T19:24:38.081Z,1.40
2018-02-14T19:26:09.896Z,1.20
2018-02-14T19:27:41.811Z,1.60
2018-02-14T19:29:13.526Z,1.40
2018-02-14T19:30:45.340Z,1.40
2018-02-14T19:32:17.155Z,1.70
2018-02-14T19:33:48.970Z,1.70
2018-02-14T19:35:20.785Z,1.70
2018-02-14T19:36:52.600Z,2.20
2018-02-14T19:39:00.771Z,1.80
2018-02-14T19:39:56.302Z,2.10
2018-02-14T19:41:28.047Z,1.80
2018-02-14T19:42:59.859Z,1.70
2018-02-14T19:44:31.774Z,1.80
2018-02-14T19:46:03.489Z,2.00
2018-02-14T19:47:35.303Z,2.20
2018-02-14T19:49:07.119Z,2.30
2018-02-14T19:50:39.033Z,1.70
2018-02-14T19:52:10.783Z,2.00
2018-02-14T19:53:42.562Z,1.90
2018-02-14T19:55:14.381Z,2.10
2018-02-14T19:56:46.342Z,2.10
2018-02-14T19:58:18.006Z,2.60
2018-02-14T19:59:49.820Z,2.60
2018-02-14T20:01:21.636Z,3.00
2018-02-14T20:02:53.550Z,2.70
2018-02-14T20:04:25.268Z,2.50
2018-02-14T20:05:57.080Z,2.80
2018-02-14T20:07:28.894Z,4.50
2018-02-14T20:09:00.709Z,4.20
2018-02-14T20:10:32.524Z,4.60
2018-02-14T20:25:55.395Z,5.00
2018-02-14T20:27:27.209Z,4.70
2018-02-14T20:28:59.023Z,4.00
2018-02-14T20:30:30.837Z,3.00
2018-02-14T20:36:06.168Z,2.00
2018-02-14T20:37:01.730Z,1.90
2018-02-14T20:38:33.544Z,2.20
2018-02-14T20:40:05.360Z,1.90
2018-02-14T20:41:37.175Z,2.70
2018-02-14T20:43:08.989Z,2.70
2018-02-14T20:44:40.804Z,2.90
2018-02-14T20:46:12.619Z,2.70
2018-02-14T20:47:44.432Z,2.60
2018-02-14T20:49:16.246Z,3.80
2018-02-14T20:50:48.069Z,2.90
2018-02-14T20:52:19.882Z,2.40
2018-02-14T20:53:51.788Z,3.20
2018-02-14T20:55:23.506Z,3.00
2018-02-14T20:56:55.317Z,2.50
2018-02-14T20:58:27.134Z,2.30
2018-02-14T20:59:59.098Z,2.80
2018-02-14T21:01:30.760Z,2.40
2018-02-14T21:03:02.560Z,2.70
2018-02-14T21:04:34.413Z,2.20
2018-02-14T21:06:06.190Z,2.40
2018-02-14T21:07:38.004Z,2.00
2018-02-14T21:09:09.818Z,2.30
2018-02-14T21:10:41.632Z,1.80
2018-02-14T21:12:13.547Z,2.30
2018-02-14T21:13:45.261Z,2.20
2018-02-14T21:15:17.076Z,2.10
2018-02-14T21:16:48.890Z,2.30
2018-02-14T21:18:20.804Z,2.10
2018-02-14T21:19:52.519Z,1.80
2018-02-14T21:21:24.333Z,2.20
2018-02-14T21:22:56.148Z,1.90
2018-02-14T21:24:27.998Z,1.80
2018-02-14T21:36:21.691Z,4.20
2018-02-14T21:37:53.505Z,5.50
2018-02-14T21:39:25.320Z,9.10
2018-02-14T21:40:57.133Z,9.50
2018-02-14T21:42:28.947Z,12.00
2018-02-14T21:44:00.762Z,10.90
2018-02-14T21:45:32.576Z,15.10
2018-02-14T21:51:30.635Z,8.60
2018-02-14T21:52:03.553Z,8.40
2018-02-14T21:53:35.370Z,6.50
2018-02-14T21:55:07.181Z,6.10
2018-02-14T21:56:38.995Z,5.60
2018-02-14T21:58:10.809Z,4.70
2018-02-14T21:59:42.623Z,4.90
2018-02-14T22:01:14.451Z,4.80
2018-02-14T22:02:46.251Z,4.50
2018-02-14T22:04:18.165Z,4.10
2018-02-14T22:05:49.878Z,3.90
2018-02-14T22:07:21.693Z,4.20
2018-02-14T22:16:33.961Z,4.40
2018-02-14T22:17:19.818Z,4.40
2018-02-14T22:18:51.632Z,4.80
2018-02-14T22:20:23.647Z,5.10
2018-02-14T22:21:55.261Z,5.20
2018-02-14T22:23:27.075Z,5.20
2018-02-14T22:24:58.889Z,5.90
2018-02-14T22:26:30.703Z,5.10
2018-02-14T22:28:02.517Z,5.20
2018-02-14T22:29:34.331Z,4.20
2018-02-14T22:31:06.145Z,4.50
2018-02-14T22:32:38.110Z,4.50
2018-02-14T22:34:09.775Z,5.20
2018-02-14T22:35:41.588Z,4.40
2018-02-14T22:37:13.401Z,5.20
2018-02-14T22:38:45.316Z,5.80
2018-02-14T22:40:17.029Z,5.60
2018-02-14T22:41:48.844Z,5.80
2018-02-14T22:43:20.657Z,5.10
2018-02-14T22:44:52.471Z,5.20
2018-02-14T22:46:24.285Z,5.80
2018-02-14T22:47:56.099Z,5.40
2018-02-14T22:49:27.912Z,5.40
2018-02-14T22:50:59.727Z,5.00
2018-02-14T22:52:31.540Z,5.10
2018-02-14T22:54:03.354Z,4.70
2018-02-14T22:55:35.168Z,4.20
2018-02-14T22:57:07.082Z,3.90
2018-02-14T22:58:38.795Z,4.10
2018-02-14T23:00:10.609Z,3.40
2018-02-14T23:01:42.429Z,2.50
2018-02-14T23:03:14.292Z,3.00
2018-02-14T23:04:46.054Z,3.10
2018-02-14T23:06:17.865Z,3.00
2018-02-14T23:07:49.680Z,3.30
2018-02-14T23:09:21.493Z,3.40
2018-02-14T23:10:53.307Z,3.50
2018-02-14T23:12:25.118Z,3.30
2018-02-14T23:13:56.932Z,3.90
2018-02-14T23:15:28.846Z,3.50
2018-02-14T23:17:00.559Z,3.80
2018-02-14T23:18:32.373Z,3.80
2018-02-14T23:20:04.186Z,3.60
2018-02-14T23:21:36.099Z,3.70
2018-02-14T23:23:07.813Z,3.30
2018-02-14T23:24:39.627Z,4.40
2018-02-14T23:26:11.440Z,4.00
2018-02-14T23:27:43.256Z,3.60
2018-02-14T23:29:15.068Z,3.30
2018-02-14T23:30:46.880Z,3.30
2018-02-14T23:32:18.694Z,3.70
2018-02-14T23:33:50.609Z,3.10
2018-02-14T23:35:22.322Z,3.60
2018-02-14T23:36:54.135Z,3.50
2018-02-14T23:38:25.948Z,3.50
2018-02-14T23:39:57.762Z,3.40
2018-02-14T23:41:29.576Z,3.00
2018-02-14T23:43:01.389Z,3.10
2018-02-14T23:44:33.203Z,3.40
2018-02-14T23:46:05.017Z,3.80
2018-02-14T23:47:36.834Z,3.90
2018-02-14T23:49:08.644Z,3.80
2018-02-14T23:50:40.464Z,4.40
2018-02-14T23:52:12.472Z,4.60
2018-02-14T23:53:44.089Z,4.40
2018-02-14T23:55:15.900Z,4.80
2018-02-14T23:56:47.713Z,4.40
2018-02-14T23:58:19.528Z,4.80
2018-02-14T23:59:51.342Z,4.70
